createdAt,value
2018-07-03T00:00:07.663Z,67.86
2018-07-03T00:02:37.379Z,67.68
2018-07-03T00:05:07.034Z,67.39
2018-07-03T00:07:37.366Z,67.69
2018-07-03T00:10:08.706Z,67.38
2018-07-03T00:12:38.594Z,67.43
2018-07-03T00:15:08.632Z,67.60
2018-07-03T00:17:38.050Z,67.45
2018-07-03T00:20:08.938Z,67.78
2018-07-03T00:22:38.610Z,67.91
2018-07-03T00:25:08.308Z,68.37
2018-07-03T00:27:37.722Z,67.77
2018-07-03T00:30:07.227Z,67.48
2018-07-03T00:32:36.633Z,67.30
2018-07-03T00:35:06.378Z,66.68
2018-07-03T00:37:36.253Z,67.27
2018-07-03T00:40:06.147Z,67.32
2018-07-03T00:42:36.089Z,67.61
2018-07-03T00:45:06.442Z,68.35
2018-07-03T00:47:36.273Z,69.73
2018-07-03T00:50:05.974Z,70.39
2018-07-03T00:52:35.630Z,70.45
2018-07-03T00:55:05.298Z,70.44
2018-07-03T00:57:35.022Z,70.12
2018-07-03T01:00:15.983Z,70.55
2018-07-03T01:02:45.442Z,69.90
2018-07-03T01:05:15.139Z,69.65
2018-07-03T01:07:44.824Z,69.88
2018-07-03T01:10:14.221Z,69.61
2018-07-03T01:12:43.611Z,69.25
2018-07-03T01:15:13.310Z,69.35
2018-07-03T01:17:43.262Z,69.04
2018-07-03T01:20:13.395Z,70.37
2018-07-03T01:22:43.161Z,69.96
2018-07-03T01:25:12.905Z,69.08
2018-07-03T01:27:42.538Z,68.61
2018-07-03T01:30:12.298Z,68.15
2018-07-03T01:32:42.237Z,68.89
2018-07-03T01:35:12.099Z,68.44
2018-07-03T01:37:42.286Z,68.96
2018-07-03T01:40:12.441Z,69.50
2018-07-03T01:42:42.377Z,70.28
2018-07-03T01:45:12.564Z,69.59
2018-07-03T01:47:42.755Z,69.59
2018-07-03T01:50:12.952Z,69.81
2018-07-03T01:52:43.101Z,69.59
2018-07-03T01:55:14.113Z,68.91
2018-07-03T01:57:44.069Z,69.18
2018-07-03T02:00:14.230Z,69.19
2018-07-03T02:02:44.200Z,68.75
2018-07-03T02:05:14.560Z,69.03
2018-07-03T02:07:44.740Z,68.66
2018-07-03T02:10:14.680Z,68.84
2018-07-03T02:12:44.971Z,69.05
2018-07-03T02:15:15.225Z,70.11
2018-07-03T02:17:45.405Z,71.15
2018-07-03T02:20:15.642Z,72.80
2018-07-03T02:22:45.814Z,72.93
2018-07-03T02:25:15.994Z,73.60
2018-07-03T02:27:46.145Z,74.14
2018-07-03T02:30:16.364Z,75.03
2018-07-03T02:32:46.605Z,75.45
2018-07-03T02:35:16.777Z,75.79
2018-07-03T02:37:46.953Z,75.74
2018-07-03T02:40:17.189Z,75.90
2018-07-03T02:42:47.373Z,75.72
2018-07-03T02:45:17.574Z,76.24
2018-07-03T02:47:47.705Z,75.67
2018-07-03T02:50:17.998Z,75.36
2018-07-03T02:52:48.231Z,74.50
2018-07-03T02:55:18.416Z,74.97
2018-07-03T02:57:48.673Z,74.85
2018-07-03T03:00:18.849Z,74.34
2018-07-03T03:02:48.997Z,75.06
2018-07-03T03:05:19.209Z,75.55
2018-07-03T03:07:49.417Z,75.28
2018-07-03T03:10:19.601Z,75.15
2018-07-03T03:12:49.850Z,74.89
2018-07-03T03:15:20.181Z,74.87
2018-07-03T03:17:50.098Z,74.54
2018-07-03T03:20:20.260Z,74.23
2018-07-03T03:22:50.445Z,73.90
2018-07-03T03:25:20.593Z,74.25
2018-07-03T03:27:50.812Z,73.94
2018-07-03T03:30:21.061Z,73.49
2018-07-03T03:32:51.244Z,73.41
2018-07-03T03:35:21.433Z,73.40
2018-07-03T03:37:51.584Z,73.30
2018-07-03T03:40:21.806Z,73.12
2018-07-03T03:42:51.972Z,72.24
2018-07-03T03:45:22.172Z,72.46
2018-07-03T03:47:52.113Z,71.30
2018-07-03T03:50:22.306Z,70.75
2018-07-03T03:52:52.462Z,70.57
2018-07-03T03:55:22.616Z,70.69
2018-07-03T03:57:52.811Z,70.77
2018-07-03T04:00:23.002Z,70.18
2018-07-03T04:02:54.264Z,69.48
2018-07-03T04:05:24.766Z,68.82
2018-07-03T04:07:55.328Z,68.11
2018-07-03T04:10:25.766Z,67.78
2018-07-03T04:12:56.261Z,67.39
2018-07-03T04:15:26.757Z,67.17
2018-07-03T04:17:57.361Z,66.28
2018-07-03T04:20:27.529Z,66.21
2018-07-03T04:22:57.690Z,64.88
2018-07-03T04:25:27.849Z,65.18
2018-07-03T04:27:58.017Z,64.54
2018-07-03T04:30:28.206Z,63.33
2018-07-03T04:32:58.345Z,62.39
2018-07-03T04:35:28.525Z,61.86
2018-07-03T04:37:58.686Z,61.57
2018-07-03T04:40:28.840Z,60.49
2018-07-03T04:42:59.029Z,59.15
2018-07-03T04:45:29.281Z,59.34
2018-07-03T04:47:59.474Z,57.79
2018-07-03T04:50:29.695Z,56.54
2018-07-03T04:52:59.657Z,56.01
2018-07-03T04:55:29.823Z,55.24
2018-07-03T04:58:00.373Z,54.40
2018-07-03T05:00:31.003Z,53.03
2018-07-03T05:03:01.525Z,52.82
2018-07-03T05:05:31.758Z,52.58
2018-07-03T05:08:01.905Z,51.67
2018-07-03T05:10:32.113Z,49.59
2018-07-03T05:13:02.901Z,47.12
2018-07-03T05:15:33.716Z,44.13
2018-07-03T05:18:04.470Z,40.72
2018-07-03T05:20:35.201Z,37.83
2018-07-03T05:23:05.985Z,33.80
2018-07-03T05:25:36.733Z,30.65
2018-07-03T05:28:07.627Z,27.57
2018-07-03T05:30:38.373Z,24.97
2018-07-03T05:33:09.132Z,23.40
2018-07-03T05:35:39.892Z,23.98
2018-07-03T05:38:10.782Z,23.76
2018-07-03T05:40:41.549Z,23.54
2018-07-03T05:43:12.358Z,23.58
2018-07-03T05:45:43.142Z,24.40
2018-07-03T05:48:14.054Z,25.10
2018-07-03T05:50:44.793Z,22.67
2018-07-03T05:53:15.615Z,20.99
2018-07-03T05:55:46.409Z,19.09
2018-07-03T05:58:17.305Z,17.68
2018-07-03T06:00:48.081Z,17.03
2018-07-03T06:03:18.720Z,17.20
2018-07-03T06:05:49.061Z,15.51
2018-07-03T06:08:19.369Z,14.40
2018-07-03T06:10:49.963Z,14.59
2018-07-03T06:13:21.102Z,14.17
2018-07-03T06:16:03.653Z,14.05
2018-07-03T06:18:52.389Z,13.29
2018-07-03T06:21:29.049Z,12.74
2018-07-03T06:23:59.669Z,13.59
2018-07-03T06:26:30.121Z,13.34
2018-07-03T06:29:00.947Z,12.60
2018-07-03T06:31:31.562Z,11.54
2018-07-03T06:34:02.042Z,11.70
2018-07-03T06:36:32.752Z,11.73
2018-07-03T06:39:03.445Z,11.87
2018-07-03T06:41:33.668Z,11.92
2018-07-03T06:44:04.188Z,11.96
2018-07-03T06:46:35.096Z,10.85
2018-07-03T06:49:05.677Z,10.25
2018-07-03T06:51:36.178Z,11.37
2018-07-03T06:54:06.986Z,11.20
2018-07-03T06:56:37.491Z,11.32
2018-07-03T06:59:08.015Z,10.52
2018-07-03T07:01:38.501Z,11.26
2018-07-03T07:04:09.106Z,11.10
2018-07-03T07:06:39.556Z,10.42
2018-07-03T07:09:10.813Z,10.12
2018-07-03T07:11:41.205Z,9.99
2018-07-03T07:14:11.715Z,10.45
2018-07-03T07:16:42.179Z,9.35
2018-07-03T07:19:12.682Z,10.65
2018-07-03T07:21:43.237Z,10.42
2018-07-03T07:24:14.061Z,10.60
2018-07-03T07:26:44.357Z,10.78
2018-07-03T07:29:14.927Z,10.53
2018-07-03T07:31:46.533Z,9.53
2018-07-03T07:34:16.851Z,9.87
2018-07-03T07:36:47.314Z,9.54
2018-07-03T07:39:17.829Z,8.48
2018-07-03T07:41:48.305Z,10.06
2018-07-03T07:44:18.789Z,8.24
2018-07-03T07:46:49.258Z,8.24
2018-07-03T07:49:19.773Z,8.67
2018-07-03T07:51:50.611Z,9.12
2018-07-03T07:54:22.885Z,8.78
2018-07-03T07:56:53.377Z,10.42
2018-07-03T07:59:24.473Z,10.64
2018-07-03T08:01:55.035Z,10.38
2018-07-03T08:04:25.535Z,9.28
2018-07-03T08:06:55.990Z,9.56
2018-07-03T08:09:26.532Z,10.54
2018-07-03T08:11:56.977Z,11.48
2018-07-03T08:14:27.489Z,11.11
2018-07-03T08:16:57.937Z,10.85
2018-07-03T08:19:28.441Z,10.10
2018-07-03T08:21:58.982Z,11.59
2018-07-03T08:24:29.461Z,11.03
2018-07-03T08:26:59.909Z,10.08
2018-07-03T08:29:30.418Z,10.71
2018-07-03T08:32:00.901Z,11.19
2018-07-03T08:34:31.414Z,10.23
2018-07-03T08:37:01.887Z,10.07
2018-07-03T08:39:32.426Z,11.37
2018-07-03T08:42:02.913Z,10.88
2018-07-03T08:44:34.193Z,10.59
2018-07-03T08:47:04.644Z,11.73
2018-07-03T08:49:35.176Z,11.87
2018-07-03T08:52:05.700Z,12.17
2018-07-03T08:54:36.211Z,12.15
2018-07-03T08:57:06.750Z,11.84
2018-07-03T08:59:37.254Z,12.48
2018-07-03T09:02:08.186Z,13.61
2018-07-03T09:04:38.262Z,13.81
2018-07-03T09:07:08.986Z,13.79
2018-07-03T09:09:39.497Z,14.23
2018-07-03T09:12:10.006Z,14.08
2018-07-03T09:14:40.813Z,14.91
2018-07-03T09:17:16.484Z,14.57
2018-07-03T09:19:46.981Z,14.75
2018-07-03T09:22:17.602Z,14.42
2018-07-03T09:24:48.113Z,14.48
2018-07-03T09:27:18.560Z,14.61
2018-07-03T09:29:49.068Z,14.67
2018-07-03T09:32:19.529Z,14.98
2018-07-03T09:34:50.093Z,14.12
2018-07-03T09:37:20.655Z,15.59
2018-07-03T09:39:51.157Z,16.02
2018-07-03T09:42:21.788Z,15.82
2018-07-03T09:44:52.310Z,17.20
2018-07-03T09:47:23.389Z,17.85
2018-07-03T09:49:54.233Z,19.10
2018-07-03T09:52:24.688Z,19.80
2018-07-03T09:54:55.492Z,20.24
2018-07-03T09:57:26.530Z,20.71
2018-07-03T09:59:57.368Z,21.49
2018-07-03T10:02:28.179Z,20.59
2018-07-03T10:04:59.010Z,21.42
2018-07-03T10:07:29.813Z,20.79
2018-07-03T10:10:00.629Z,19.89
2018-07-03T10:12:31.434Z,20.42
2018-07-03T10:15:02.251Z,21.41
2018-07-03T10:17:33.223Z,21.05
2018-07-03T10:20:04.168Z,21.79
2018-07-03T10:22:35.104Z,22.37
2018-07-03T10:25:06.021Z,21.05
2018-07-03T10:27:36.911Z,21.29
2018-07-03T10:30:07.976Z,22.27
2018-07-03T10:32:38.919Z,21.77
2018-07-03T10:35:09.749Z,23.25
2018-07-03T10:37:40.565Z,23.40
2018-07-03T10:40:11.277Z,23.28
2018-07-03T10:42:42.381Z,22.86
2018-07-03T10:45:13.882Z,22.65
2018-07-03T10:47:45.451Z,22.87
2018-07-03T10:50:17.028Z,24.43
2018-07-03T10:52:48.276Z,24.05
2018-07-03T10:55:19.293Z,24.41
2018-07-03T10:57:50.185Z,23.34
2018-07-03T11:00:21.043Z,22.78
2018-07-03T11:02:51.918Z,22.94
2018-07-03T11:05:22.858Z,22.72
2018-07-03T11:07:54.121Z,23.86
2018-07-03T11:10:24.949Z,25.54
2018-07-03T11:12:55.776Z,24.91
2018-07-03T11:15:26.657Z,24.18
2018-07-03T11:17:57.565Z,25.48
2018-07-03T11:20:28.221Z,25.21
2018-07-03T11:22:59.085Z,24.26
2018-07-03T11:25:29.954Z,24.97
2018-07-03T11:28:00.820Z,25.51
2018-07-03T11:30:31.657Z,25.23
2018-07-03T11:33:02.571Z,25.26
2018-07-03T11:35:33.418Z,25.21
2018-07-03T11:38:04.330Z,25.11
2018-07-03T11:40:35.227Z,25.54
2018-07-03T11:43:06.081Z,24.21
2018-07-03T11:45:36.967Z,24.47
2018-07-03T11:48:07.846Z,26.02
2018-07-03T11:50:38.575Z,24.45
2018-07-03T11:53:09.356Z,26.09
2018-07-03T11:55:40.183Z,25.87
2018-07-03T11:58:10.962Z,27.39
2018-07-03T12:00:41.826Z,26.69
2018-07-03T12:03:12.610Z,25.74
2018-07-03T12:05:43.434Z,26.58
2018-07-03T12:08:14.629Z,25.14
2018-07-03T12:10:45.517Z,25.81
2018-07-03T12:13:17.030Z,24.46
2018-07-03T12:15:47.885Z,24.42
2018-07-03T12:18:23.677Z,27.02
2018-07-03T12:20:54.581Z,26.52
2018-07-03T12:23:25.440Z,27.16
2018-07-03T12:25:56.269Z,25.73
2018-07-03T12:28:27.093Z,26.88
2018-07-03T12:30:57.905Z,26.43
2018-07-03T12:33:28.452Z,26.42
2018-07-03T12:35:59.293Z,26.24
2018-07-03T12:38:30.132Z,26.44
2018-07-03T12:41:00.965Z,25.37
2018-07-03T12:43:31.849Z,25.86
2018-07-03T12:46:02.666Z,26.74
2018-07-03T12:48:33.492Z,27.97
2018-07-03T12:51:04.540Z,26.65
2018-07-03T12:53:35.419Z,25.18
2018-07-03T12:56:06.275Z,26.44
2018-07-03T12:58:37.075Z,24.86
2018-07-03T13:01:07.999Z,26.24
2018-07-03T13:03:38.942Z,28.44
2018-07-03T13:06:09.869Z,27.07
2018-07-03T13:08:40.689Z,27.81
2018-07-03T13:11:11.493Z,26.29
2018-07-03T13:13:42.265Z,26.52
2018-07-03T13:16:13.227Z,26.82
2018-07-03T13:18:44.687Z,26.90
2018-07-03T13:21:16.279Z,25.83
2018-07-03T13:23:59.592Z,26.78
2018-07-03T13:26:48.525Z,25.63
2018-07-03T13:29:20.513Z,26.39
2018-07-03T13:31:51.372Z,26.45
2018-07-03T13:34:22.177Z,24.12
2018-07-03T13:36:53.003Z,25.74
2018-07-03T13:39:23.780Z,26.98
2018-07-03T13:41:54.609Z,27.50
2018-07-03T13:44:25.386Z,25.17
2018-07-03T13:46:56.229Z,25.14
2018-07-03T13:49:27.000Z,25.07
2018-07-03T13:51:57.797Z,26.20
2018-07-03T13:54:28.553Z,26.19
2018-07-03T13:56:59.434Z,26.47
2018-07-03T13:59:30.251Z,26.77
2018-07-03T14:02:01.030Z,26.51
2018-07-03T14:04:31.828Z,26.65
2018-07-03T14:07:02.673Z,24.94
2018-07-03T14:09:33.514Z,25.94
2018-07-03T14:12:04.356Z,25.32
2018-07-03T14:14:35.213Z,26.03
2018-07-03T14:17:06.956Z,26.33
2018-07-03T14:19:37.706Z,25.47
2018-07-03T14:22:08.631Z,26.55
2018-07-03T14:24:39.417Z,26.35
2018-07-03T14:27:10.281Z,25.73
2018-07-03T14:29:41.078Z,25.15
2018-07-03T14:32:11.982Z,25.21
2018-07-03T14:34:42.967Z,24.77
2018-07-03T14:37:14.196Z,24.07
2018-07-03T14:39:45.507Z,24.44
2018-07-03T14:42:16.373Z,26.68
2018-07-03T14:44:47.153Z,25.10
2018-07-03T14:47:17.962Z,25.97
2018-07-03T14:49:48.784Z,26.11
2018-07-03T14:52:19.376Z,25.97
2018-07-03T14:54:50.561Z,24.69
2018-07-03T14:57:21.381Z,26.37
2018-07-03T14:59:52.205Z,27.69
2018-07-03T15:02:22.801Z,26.69
2018-07-03T15:04:53.575Z,26.49
2018-07-03T15:07:24.366Z,26.06
2018-07-03T15:09:56.077Z,25.81
2018-07-03T15:12:26.654Z,26.41
2018-07-03T15:14:57.247Z,25.71
2018-07-03T15:17:28.156Z,27.04
2018-07-03T15:19:59.965Z,26.46
2018-07-03T15:22:30.550Z,26.56
2018-07-03T15:25:01.098Z,27.08
2018-07-03T15:27:31.785Z,28.22
2018-07-03T15:30:02.384Z,28.20
2018-07-03T15:32:32.984Z,28.89
2018-07-03T15:35:03.821Z,27.93
2018-07-03T15:37:34.601Z,25.59
2018-07-03T15:40:05.479Z,26.70
2018-07-03T15:42:36.278Z,26.35
2018-07-03T15:45:09.808Z,26.47
2018-07-03T15:47:40.486Z,25.85
2018-07-03T15:50:12.213Z,25.79
2018-07-03T15:52:43.026Z,26.72
2018-07-03T15:55:13.813Z,27.14
2018-07-03T15:57:44.525Z,26.82
2018-07-03T16:00:15.965Z,26.36
2018-07-03T16:04:57.356Z,26.24
2018-07-03T16:07:39.020Z,26.01
2018-07-03T16:10:09.901Z,26.78
2018-07-03T16:12:40.750Z,26.17
2018-07-03T16:15:12.017Z,25.21
2018-07-03T16:17:43.244Z,25.13
2018-07-03T16:20:19.417Z,24.66
2018-07-03T16:22:50.678Z,24.73
2018-07-03T16:25:21.667Z,25.28
2018-07-03T16:27:52.977Z,26.40
2018-07-03T16:30:24.209Z,25.67
2018-07-03T16:32:55.125Z,25.44
2018-07-03T16:35:26.292Z,26.21
2018-07-03T16:37:57.398Z,25.03
2018-07-03T16:40:28.273Z,24.86
2018-07-03T16:42:59.153Z,24.76
2018-07-03T16:45:29.996Z,25.24
2018-07-03T16:48:00.788Z,24.95
2018-07-03T16:50:31.373Z,24.99
2018-07-03T16:53:02.228Z,24.96
2018-07-03T16:55:33.025Z,25.78
2018-07-03T16:58:03.556Z,25.19
2018-07-03T17:00:34.368Z,26.01
2018-07-03T17:03:05.018Z,26.61
2018-07-03T17:05:35.856Z,26.04
2018-07-03T17:08:06.846Z,25.78
2018-07-03T17:10:37.800Z,26.45
2018-07-03T17:13:08.369Z,25.54
2018-07-03T17:15:39.181Z,26.23
2018-07-03T17:18:09.741Z,26.74
2018-07-03T17:20:40.666Z,26.04
2018-07-03T17:23:11.680Z,26.29
2018-07-03T17:25:42.722Z,28.01
2018-07-03T17:28:13.698Z,26.90
2018-07-03T17:30:44.551Z,26.35
2018-07-03T17:33:15.355Z,27.37
2018-07-03T17:35:46.300Z,27.45
2018-07-03T17:38:17.096Z,28.26
2018-07-03T17:40:59.001Z,28.87
2018-07-03T17:44:14.038Z,29.84
2018-07-03T17:46:45.581Z,29.42
2018-07-03T17:49:16.393Z,30.80
2018-07-03T17:51:47.233Z,31.40
2018-07-03T17:54:18.650Z,31.18
2018-07-03T17:56:49.521Z,31.47
2018-07-03T17:59:20.397Z,32.21
2018-07-03T18:01:50.828Z,32.89
2018-07-03T18:04:21.364Z,33.50
2018-07-03T18:06:51.625Z,33.10
2018-07-03T18:09:22.409Z,32.95
2018-07-03T18:11:53.330Z,33.86
2018-07-03T18:14:24.101Z,34.18
2018-07-03T18:16:54.576Z,34.41
2018-07-03T18:19:30.449Z,35.16
2018-07-03T18:22:00.458Z,35.26
2018-07-03T18:24:30.636Z,35.21
2018-07-03T18:27:00.885Z,36.17
2018-07-03T18:29:31.188Z,35.80
2018-07-03T18:32:01.371Z,36.12
2018-07-03T18:34:31.441Z,37.77
2018-07-03T18:37:01.938Z,38.11
2018-07-03T18:39:32.210Z,39.07
2018-07-03T18:42:02.484Z,39.75
2018-07-03T18:44:32.761Z,41.23
2018-07-03T18:47:02.959Z,41.67
2018-07-03T18:49:33.186Z,41.83
2018-07-03T18:52:03.401Z,42.27
2018-07-03T18:54:33.575Z,42.42
2018-07-03T18:57:03.813Z,42.63
2018-07-03T18:59:34.038Z,43.21
2018-07-03T19:02:04.598Z,43.93
2018-07-03T19:04:34.802Z,44.69
2018-07-03T19:07:05.091Z,44.51
2018-07-03T19:09:35.288Z,45.24
2018-07-03T19:12:05.864Z,45.99
2018-07-03T19:14:36.119Z,46.18
2018-07-03T19:17:06.335Z,46.30
2018-07-03T19:19:36.532Z,45.71
2018-07-03T19:22:06.810Z,45.64
2018-07-03T19:24:36.997Z,45.93
2018-07-03T19:27:07.213Z,47.22
2018-07-03T19:29:37.388Z,48.58
2018-07-03T19:32:07.920Z,49.03
2018-07-03T19:34:38.085Z,50.42
2018-07-03T19:37:08.302Z,51.14
2018-07-03T19:39:38.554Z,51.86
2018-07-03T19:42:09.092Z,52.57
2018-07-03T19:44:39.206Z,52.56
2018-07-03T19:47:09.381Z,52.98
2018-07-03T19:49:39.593Z,53.44
2018-07-03T19:52:09.759Z,53.24
2018-07-03T19:54:39.949Z,53.49
2018-07-03T19:57:10.109Z,53.51
2018-07-03T19:59:40.281Z,53.57
2018-07-03T20:02:10.532Z,53.96
2018-07-03T20:04:40.981Z,53.37
2018-07-03T20:07:11.177Z,53.77
2018-07-03T20:09:41.407Z,53.60
2018-07-03T20:12:11.596Z,54.11
2018-07-03T20:14:41.767Z,54.44
2018-07-03T20:17:11.947Z,54.68
2018-07-03T20:19:42.163Z,54.86
2018-07-03T20:22:12.312Z,54.85
2018-07-03T20:24:42.488Z,55.91
2018-07-03T20:27:12.641Z,55.32
2018-07-03T20:29:42.896Z,55.25
2018-07-03T20:32:13.039Z,54.68
2018-07-03T20:34:43.184Z,55.63
2018-07-03T20:37:13.376Z,56.06
2018-07-03T20:39:43.255Z,56.56
2018-07-03T20:42:13.226Z,57.30
2018-07-03T20:44:43.190Z,56.43
2018-07-03T20:47:13.475Z,56.54
2018-07-03T20:49:43.702Z,57.35
2018-07-03T20:52:14.092Z,57.69
2018-07-03T20:54:44.078Z,56.99
2018-07-03T20:57:14.341Z,57.56
2018-07-03T20:59:44.724Z,57.69
2018-07-03T21:02:15.165Z,58.06
2018-07-03T21:04:45.346Z,58.72
2018-07-03T21:07:15.538Z,59.36
2018-07-03T21:09:45.712Z,59.58
2018-07-03T21:12:15.865Z,60.38
2018-07-03T21:14:46.076Z,62.28
2018-07-03T21:17:16.866Z,63.65
2018-07-03T21:19:47.080Z,63.50
2018-07-03T21:22:17.405Z,63.79
2018-07-03T21:24:47.612Z,64.14
2018-07-03T21:27:17.822Z,64.86
2018-07-03T21:29:48.101Z,65.18
2018-07-03T21:32:18.256Z,65.60
2018-07-03T21:34:48.413Z,66.17
2018-07-03T21:37:18.628Z,66.84
2018-07-03T21:39:48.793Z,66.83
2018-07-03T21:42:19.016Z,67.20
2018-07-03T21:44:49.185Z,67.73
2018-07-03T21:47:19.345Z,67.99
2018-07-03T21:49:49.635Z,67.91
2018-07-03T21:52:19.821Z,67.83
2018-07-03T21:54:50.047Z,67.56
2018-07-03T21:57:20.249Z,68.07
2018-07-03T21:59:50.430Z,68.28
2018-07-03T22:02:20.618Z,69.27
2018-07-03T22:04:50.601Z,69.32
2018-07-03T22:07:20.865Z,70.58
2018-07-03T22:09:51.093Z,70.62
2018-07-03T22:12:21.289Z,70.59
2018-07-03T22:14:51.461Z,70.77
2018-07-03T22:17:21.409Z,70.96
2018-07-03T22:19:51.626Z,71.47
2018-07-03T22:22:21.788Z,71.91
2018-07-03T22:24:51.986Z,72.33
2018-07-03T22:27:22.265Z,72.71
2018-07-03T22:29:53.348Z,72.96
2018-07-03T22:32:23.557Z,72.66
2018-07-03T22:34:53.762Z,72.73
2018-07-03T22:37:23.926Z,72.53
2018-07-03T22:39:54.098Z,73.31
2018-07-03T22:42:24.305Z,73.64
2018-07-03T22:44:54.517Z,72.71
2018-07-03T22:47:24.893Z,73.34
2018-07-03T22:49:55.117Z,73.77
2018-07-03T22:52:25.269Z,73.76
2018-07-03T22:54:55.965Z,74.32
2018-07-03T22:57:26.249Z,72.55
2018-07-03T22:59:56.450Z,72.51
2018-07-03T23:02:26.722Z,72.00
2018-07-03T23:04:56.708Z,72.31
2018-07-03T23:07:26.868Z,71.78
2018-07-03T23:09:57.073Z,70.58
2018-07-03T23:12:27.289Z,69.51
2018-07-03T23:14:57.461Z,70.16
2018-07-03T23:17:27.635Z,70.33
2018-07-03T23:19:58.045Z,70.88
2018-07-03T23:22:28.214Z,71.51
2018-07-03T23:24:58.264Z,71.64
2018-07-03T23:27:28.440Z,71.81
2018-07-03T23:29:58.697Z,72.62
2018-07-03T23:32:28.847Z,74.30
2018-07-03T23:34:59.008Z,74.17
2018-07-03T23:37:29.186Z,73.31
2018-07-03T23:39:59.377Z,73.19
2018-07-03T23:42:29.558Z,73.48
2018-07-03T23:44:59.721Z,74.19
2018-07-03T23:47:40.760Z,74.22
2018-07-03T23:50:27.505Z,73.41
2018-07-03T23:53:14.395Z,72.11
2018-07-03T23:56:01.298Z,71.90
2018-07-03T23:58:47.965Z,72.55
